Time,TemperatureF,DewpointF,PressureIn,WindDirection,WindDirectionDegrees,WindSpeedMPH,WindSpeedGustMPH,Humidity,HourlyPrecipIn,Conditions,Clouds,dailyrainin,SolarRadiationWatts/m^2,SoftwareType,DateUTC
2014-07-25 00:03:00,64.1,63.0,29.93,NNW,347,0.0,0.0,96,0.00,,,0.06,0,weatherlink.com 1.10,2014-07-25 04:03:00,
2014-07-25 00:18:00,63.8,63.0,29.93,NNW,347,0.0,0.0,97,0.00,,,0.00,0,weatherlink.com 1.10,2014-07-25 04:18:00,
2014-07-25 00:33:00,63.5,63.0,29.94,NNW,347,0.0,0.0,97,0.00,,,0.00,0,weatherlink.com 1.10,2014-07-25 04:33:00,
2014-07-25 00:48:00,63.2,62.0,29.95,NNW,347,0.0,0.0,97,0.00,,,0.00,0,weatherlink.com 1.10,2014-07-25 04:48:00,
2014-07-25 01:03:00,62.9,62.0,29.95,NNW,347,0.0,0.0,97,0.00,,,0.00,0,weatherlink.com 1.10,2014-07-25 05:03:00,
2014-07-25 01:18:00,62.5,62.0,29.95,NNW,347,0.0,0.0,97,0.00,,,0.00,0,weatherlink.com 1.10,2014-07-25 05:18:00,
2014-07-25 01:33:00,62.2,61.0,29.95,NNW,347,0.0,0.0,97,0.00,,,0.00,0,weatherlink.com 1.10,2014-07-25 05:33:00,
2014-07-25 01:48:00,61.9,61.0,29.95,NNW,347,0.0,0.0,97,0.00,,,0.00,0,weatherlink.com 1.10,2014-07-25 05:48:00,
2014-07-25 02:04:00,61.7,61.0,29.96,NNW,347,0.0,0.0,98,0.00,,,0.00,0,weatherlink.com 1.10,2014-07-25 06:04:00,
2014-07-25 02:19:00,61.3,61.0,29.96,NNW,347,0.0,0.0,97,0.00,,,0.00,0,weatherlink.com 1.10,2014-07-25 06:19:00,
2014-07-25 02:34:00,61.1,61.0,29.95,NNW,347,0.0,0.0,98,0.00,,,0.00,0,weatherlink.com 1.10,2014-07-25 06:34:00,
2014-07-25 02:49:00,60.8,60.0,29.95,NNW,347,0.0,0.0,98,0.00,,,0.00,0,weatherlink.com 1.10,2014-07-25 06:49:00,
2014-07-25 03:04:00,60.6,60.0,29.96,NNW,347,0.0,0.0,98,0.00,,,0.00,0,weatherlink.com 1.10,2014-07-25 07:04:00,
2014-07-25 03:19:00,60.4,60.0,29.95,NNW,347,0.0,0.0,98,0.00,,,0.00,0,weatherlink.com 1.10,2014-07-25 07:19:00,
2014-07-25 03:34:00,60.1,60.0,29.96,NNW,347,0.0,0.0,98,0.00,,,0.00,0,weatherlink.com 1.10,2014-07-25 07:34:00,
2014-07-25 03:49:00,59.9,59.0,29.96,NNW,347,0.0,0.0,98,0.00,,,0.00,0,weatherlink.com 1.10,2014-07-25 07:49:00,
2014-07-25 04:04:00,59.8,59.0,29.96,NNW,347,0.0,0.0,98,0.00,,,0.00,0,weatherlink.com 1.10,2014-07-25 08:04:00,
2014-07-25 04:19:00,59.5,59.0,29.96,NNW,347,0.0,0.0,98,0.00,,,0.00,0,weatherlink.com 1.10,2014-07-25 08:19:00,
2014-07-25 04:34:00,59.3,59.0,29.97,NNW,347,0.0,0.0,98,0.00,,,0.00,0,weatherlink.com 1.10,2014-07-25 08:34:00,
2014-07-25 04:49:00,59.0,59.0,29.97,NNW,347,0.0,0.0,98,0.00,,,0.00,0,weatherlink.com 1.10,2014-07-25 08:49:00,
2014-07-25 05:04:00,59.0,59.0,29.98,NNW,346,0.0,0.0,98,0.00,,,0.00,0,weatherlink.com 1.10,2014-07-25 09:04:00,
2014-07-25 05:19:00,59.0,59.0,29.99,NNW,347,0.0,0.0,98,0.00,,,0.00,0,weatherlink.com 1.10,2014-07-25 09:19:00,
2014-07-25 05:34:00,58.6,58.0,29.99,NNW,346,0.0,0.0,98,0.00,,,0.00,0,weatherlink.com 1.10,2014-07-25 09:34:00,
2014-07-25 05:49:00,58.3,58.0,30.00,NNW,346,0.0,0.0,98,0.00,,,0.00,0,weatherlink.com 1.10,2014-07-25 09:49:00,
2014-07-25 06:04:00,58.1,58.0,30.01,NNW,346,0.0,0.0,98,0.00,,,0.00,0,weatherlink.com 1.10,2014-07-25 10:04:00,
2014-07-25 06:19:00,57.9,57.0,30.01,NNW,346,0.0,0.0,98,0.00,,,0.00,0,weatherlink.com 1.10,2014-07-25 10:19:00,
2014-07-25 06:34:00,57.7,57.0,30.02,NNW,346,0.0,0.0,98,0.00,,,0.00,7,weatherlink.com 1.10,2014-07-25 10:34:00,
2014-07-25 06:49:00,57.6,57.0,30.02,NNW,346,0.0,0.0,99,0.00,,,0.00,11,weatherlink.com 1.10,2014-07-25 10:49:00,
2014-07-25 07:04:00,57.8,58.0,30.02,NNW,346,0.0,0.0,99,0.00,,,0.00,14,weatherlink.com 1.10,2014-07-25 11:04:00,
2014-07-25 07:19:00,58.1,58.0,30.03,NNW,346,0.0,0.0,99,0.00,,,0.00,18,weatherlink.com 1.10,2014-07-25 11:19:00,
2014-07-25 07:34:00,58.3,58.0,30.03,NNW,346,0.0,0.0,99,0.00,,,0.00,21,weatherlink.com 1.10,2014-07-25 11:34:00,
2014-07-25 07:49:00,58.9,59.0,30.03,NNW,346,0.0,0.0,99,0.00,,,0.00,25,weatherlink.com 1.10,2014-07-25 11:49:00,
2014-07-25 08:04:00,59.0,59.0,30.04,NNW,346,0.0,0.0,99,0.00,,,0.00,28,weatherlink.com 1.10,2014-07-25 12:04:00,
2014-07-25 08:19:00,59.6,59.0,30.04,WSW,250,0.0,1.0,99,0.00,,,0.00,32,weatherlink.com 1.10,2014-07-25 12:19:00,
2014-07-25 08:34:00,60.2,60.0,30.05,WSW,251,0.0,0.0,98,0.00,,,0.00,35,weatherlink.com 1.10,2014-07-25 12:34:00,
2014-07-25 08:49:00,60.9,60.0,30.05,WSW,254,1.0,1.0,96,0.00,,,0.00,40,weatherlink.com 1.10,2014-07-25 12:49:00,
2014-07-25 09:04:00,61.8,60.0,30.05,WSW,256,0.0,2.0,92,0.00,,,0.00,47,weatherlink.com 1.10,2014-07-25 13:04:00,
2014-07-25 09:19:00,63.0,59.0,30.05,North,5,0.0,2.0,87,0.00,,,0.00,54,weatherlink.com 1.10,2014-07-25 13:19:00,
2014-07-25 09:34:00,64.6,60.0,30.06,North,5,0.0,2.0,84,0.00,,,0.00,63,weatherlink.com 1.10,2014-07-25 13:34:00,
2014-07-25 09:50:00,65.9,60.0,30.05,North,355,2.0,2.0,81,0.00,,,0.00,647,weatherlink.com 1.10,2014-07-25 13:50:00,
2014-07-25 10:05:00,67.9,58.0,30.06,NNE,26,2.0,3.0,71,0.00,,,0.00,689,weatherlink.com 1.10,2014-07-25 14:05:00,
2014-07-25 10:20:00,69.2,60.0,30.05,North,9,0.0,3.0,72,0.00,,,0.00,729,weatherlink.com 1.10,2014-07-25 14:20:00,
2014-07-25 10:35:00,70.3,60.0,30.05,North,9,1.0,2.0,70,0.00,,,0.00,768,weatherlink.com 1.10,2014-07-25 14:35:00,
2014-07-25 10:50:00,70.8,60.0,30.05,NNW,333,0.0,3.0,68,0.00,,,0.00,803,weatherlink.com 1.10,2014-07-25 14:50:00,
2014-07-25 11:05:00,71.8,59.0,30.04,North,5,2.0,3.0,64,0.00,,,0.00,835,weatherlink.com 1.10,2014-07-25 15:05:00,
2014-07-25 11:20:00,72.7,62.0,30.04,NNW,331,1.0,3.0,69,0.00,,,0.00,865,weatherlink.com 1.10,2014-07-25 15:20:00,
2014-07-25 11:35:00,73.3,60.0,30.04,NNE,27,3.0,3.0,64,0.00,,,0.00,886,weatherlink.com 1.10,2014-07-25 15:35:00,
2014-07-25 11:50:00,74.4,63.0,30.04,NNE,17,0.0,2.0,68,0.00,,,0.00,325,weatherlink.com 1.10,2014-07-25 15:50:00,
2014-07-25 12:05:00,74.5,61.0,30.03,NNE,32,1.0,3.0,62,0.00,,,0.00,932,weatherlink.com 1.10,2014-07-25 16:05:00,
2014-07-25 12:20:00,75.6,62.0,30.03,NE,38,0.0,3.0,62,0.00,,,0.00,944,weatherlink.com 1.10,2014-07-25 16:20:00,
2014-07-25 12:35:00,76.4,63.0,30.03,WNW,296,0.0,4.0,64,0.00,,,0.00,960,weatherlink.com 1.10,2014-07-25 16:35:00,
2014-07-25 12:50:00,76.6,61.0,30.03,NNW,344,2.0,3.0,58,0.00,,,0.00,970,weatherlink.com 1.10,2014-07-25 16:50:00,
2014-07-25 13:06:00,76.8,62.0,30.02,NE,46,2.0,4.0,60,0.00,,,0.00,970,weatherlink.com 1.10,2014-07-25 17:06:00,
2014-07-25 13:20:00,77.0,60.0,30.02,SSW,208,2.0,7.0,56,0.00,,,0.00,972,weatherlink.com 1.10,2014-07-25 17:20:00,
2014-07-25 13:35:00,78.5,63.0,30.00,SSE,150,1.0,2.0,59,0.00,,,0.00,972,weatherlink.com 1.10,2014-07-25 17:35:00,
2014-07-25 13:50:00,77.9,61.0,30.00,SW,219,0.0,4.0,56,0.00,,,0.00,962,weatherlink.com 1.10,2014-07-25 17:50:00,
2014-07-25 14:05:00,78.7,62.0,30.00,NNE,30,2.0,3.0,56,0.00,,,0.00,953,weatherlink.com 1.10,2014-07-25 18:05:00,
2014-07-25 14:20:00,79.4,63.0,29.99,North,5,1.0,2.0,58,0.00,,,0.00,940,weatherlink.com 1.10,2014-07-25 18:20:00,
2014-07-25 14:35:00,80.0,61.0,29.98,SW,215,2.0,3.0,53,0.00,,,0.00,932,weatherlink.com 1.10,2014-07-25 18:35:00,